LCKY02 KNDZ-KNDZ
Flight info
| Callsign | LCKY02 |
|---|---|
| Flight time | 0h 53m |
| Altitude | 3000 |
| Route | KNDZ EGLIN E MOA KHRT KNDZ |
| Aircraft | B06/L-VGD/C |
Departure
| Time | 2026-05-08 01:09 |
|---|---|
| Airport | Whiting Field Naval Air Station South Airport (KNDZ) |
Arrival
| Time | 2026-05-08 02:03 |
|---|---|
| Airport | Whiting Field Naval Air Station South Airport (KNDZ) |
| Time | Latitude | Longitude | Altitude | Speed | Heading |
|---|---|---|---|---|---|
| 2026-05-08 00:58 | 30.70216 | -87.01571 | 180 ft | 0 kts | 2° |
| 2026-05-08 01:06 | 30.70216 | -87.01568 | 191 ft | 1 kts | 4° |
| 2026-05-08 01:06 | 30.70228 | -87.01529 | 199 ft | 10 kts | 121° |
| 2026-05-08 01:07 | 30.70211 | -87.01466 | 216 ft | 6 kts | 147° |
| 2026-05-08 01:07 | 30.70152 | -87.01417 | 226 ft | 14 kts | 128° |
| 2026-05-08 01:07 | 30.70062 | -87.01338 | 267 ft | 22 kts | 131° |
| 2026-05-08 01:07 | 30.69890 | -87.01250 | 254 ft | 27 kts | 182° |
| 2026-05-08 01:08 | 30.69693 | -87.01254 | 226 ft | 27 kts | 180° |
| 2026-05-08 01:08 | 30.69536 | -87.01261 | 208 ft | 22 kts | 181° |
| 2026-05-08 01:08 | 30.69402 | -87.01289 | 197 ft | 18 kts | 275° |
| 2026-05-08 01:08 | 30.69566 | -87.01491 | 254 ft | 54 kts | 316° |
| 2026-05-08 01:09 | 30.69915 | -87.01861 | 301 ft | 76 kts | 313° |
| 2026-05-08 01:09 | 30.70289 | -87.02259 | 498 ft | 70 kts | 314° |
| 2026-05-08 01:09 | 30.70690 | -87.02620 | 649 ft | 71 kts | 321° |
| 2026-05-08 01:09 | 30.71119 | -87.02838 | 887 ft | 75 kts | 347° |
| 2026-05-08 01:10 | 30.71672 | -87.02644 | 977 ft | 95 kts | 35° |
| 2026-05-08 01:10 | 30.71941 | -87.01914 | 1073 ft | 108 kts | 87° |
| 2026-05-08 01:10 | 30.71709 | -87.01096 | 1224 ft | 104 kts | 130° |
| 2026-05-08 01:10 | 30.71160 | -87.00621 | 1480 ft | 91 kts | 161° |
| 2026-05-08 01:11 | 30.70603 | -87.00168 | 1572 ft | 107 kts | 131° |
| 2026-05-08 01:11 | 30.70333 | -86.99354 | 1735 ft | 104 kts | 105° |
| 2026-05-08 01:11 | 30.70248 | -86.98525 | 1901 ft | 110 kts | 86° |
| 2026-05-08 01:11 | 30.70313 | -86.97677 | 2185 ft | 95 kts | 86° |
| 2026-05-08 01:12 | 30.70343 | -86.96971 | 2551 ft | 84 kts | 90° |
| 2026-05-08 01:12 | 30.70346 | -86.96294 | 2848 ft | 85 kts | 92° |
| 2026-05-08 01:12 | 30.70409 | -86.95593 | 3106 ft | 100 kts | 77° |
| 2026-05-08 01:12 | 30.70627 | -86.94804 | 3262 ft | 108 kts | 63° |
| 2026-05-08 01:13 | 30.70956 | -86.93917 | 3156 ft | 133 kts | 67° |
| 2026-05-08 01:13 | 30.71279 | -86.92893 | 3061 ft | 133 kts | 70° |
| 2026-05-08 01:13 | 30.71578 | -86.91861 | 2902 ft | 130 kts | 69° |
| 2026-05-08 01:13 | 30.71855 | -86.90941 | 3023 ft | 115 kts | 70° |
| 2026-05-08 01:14 | 30.72090 | -86.90027 | 2991 ft | 123 kts | 73° |
| 2026-05-08 01:14 | 30.72259 | -86.89104 | 3171 ft | 116 kts | 79° |
| 2026-05-08 01:14 | 30.72451 | -86.88188 | 3299 ft | 116 kts | 71° |
| 2026-05-08 01:14 | 30.72745 | -86.87272 | 3017 ft | 125 kts | 70° |
| 2026-05-08 01:15 | 30.73018 | -86.86347 | 2964 ft | 113 kts | 72° |
| 2026-05-08 01:15 | 30.73216 | -86.85491 | 2978 ft | 110 kts | 77° |
| 2026-05-08 01:15 | 30.73377 | -86.84603 | 2923 ft | 111 kts | 76° |
| 2026-05-08 01:15 | 30.73542 | -86.83749 | 2933 ft | 108 kts | 73° |
| 2026-05-08 01:16 | 30.73764 | -86.82929 | 2951 ft | 106 kts | 70° |
| 2026-05-08 01:16 | 30.74010 | -86.82127 | 2957 ft | 108 kts | 70° |
| 2026-05-08 01:16 | 30.74258 | -86.81304 | 2961 ft | 106 kts | 72° |
| 2026-05-08 01:16 | 30.74521 | -86.80493 | 2915 ft | 110 kts | 62° |
| 2026-05-08 01:17 | 30.74841 | -86.79718 | 2978 ft | 105 kts | 61° |
| 2026-05-08 01:17 | 30.75280 | -86.79025 | 2950 ft | 106 kts | 50° |
| 2026-05-08 01:17 | 30.75743 | -86.78367 | 2961 ft | 106 kts | 51° |
| 2026-05-08 01:17 | 30.76203 | -86.77687 | 2955 ft | 106 kts | 52° |
| 2026-05-08 01:18 | 30.76664 | -86.77017 | 2980 ft | 107 kts | 46° |
| 2026-05-08 01:18 | 30.77185 | -86.76409 | 2991 ft | 107 kts | 40° |
| 2026-05-08 01:18 | 30.77718 | -86.75806 | 2984 ft | 107 kts | 40° |
| 2026-05-08 01:18 | 30.78266 | -86.75233 | 3005 ft | 105 kts | 42° |
| 2026-05-08 01:19 | 30.78766 | -86.74600 | 2998 ft | 107 kts | 54° |
| 2026-05-08 01:19 | 30.79171 | -86.73874 | 3009 ft | 106 kts | 57° |
| 2026-05-08 01:19 | 30.79540 | -86.73131 | 2999 ft | 107 kts | 59° |
| 2026-05-08 01:19 | 30.79966 | -86.72418 | 3004 ft | 105 kts | 57° |
| 2026-05-08 01:20 | 30.80346 | -86.71681 | 2995 ft | 108 kts | 59° |
| 2026-05-08 01:20 | 30.80716 | -86.70907 | 3009 ft | 111 kts | 61° |
| 2026-05-08 01:20 | 30.81097 | -86.70182 | 2950 ft | 102 kts | 46° |
| 2026-05-08 01:20 | 30.81767 | -86.69699 | 2337 ft | 132 kts | 20° |
| 2026-05-08 01:21 | 30.82593 | -86.69379 | 2063 ft | 124 kts | 10° |
| 2026-05-08 01:21 | 30.83406 | -86.69243 | 1951 ft | 98 kts | 9° |
| 2026-05-08 01:21 | 30.83906 | -86.69109 | 2295 ft | 51 kts | 17° |
| 2026-05-08 01:21 | 30.84148 | -86.69061 | 2788 ft | 24 kts | 19° |
| 2026-05-08 01:22 | 30.84268 | -86.69083 | 3337 ft | 20 kts | 23° |
| 2026-05-08 01:22 | 30.84583 | -86.69197 | 3366 ft | 75 kts | 346° |
| 2026-05-08 01:22 | 30.85200 | -86.69273 | 3096 ft | 94 kts | 354° |
| 2026-05-08 01:22 | 30.85813 | -86.69313 | 3031 ft | 86 kts | 355° |
| 2026-05-08 01:23 | 30.86273 | -86.69570 | 3147 ft | 78 kts | 276° |
| 2026-05-08 01:23 | 30.85812 | -86.69947 | 2917 ft | 104 kts | 172° |
| 2026-05-08 01:23 | 30.85574 | -86.69319 | 2940 ft | 96 kts | 53° |
| 2026-05-08 01:23 | 30.86149 | -86.69117 | 3024 ft | 94 kts | 2° |
| 2026-05-08 01:24 | 30.86559 | -86.68639 | 2893 ft | 103 kts | 101° |
| 2026-05-08 01:24 | 30.86063 | -86.68538 | 2916 ft | 89 kts | 244° |
| 2026-05-08 01:24 | 30.86390 | -86.68981 | 3028 ft | 95 kts | 358° |
| 2026-05-08 01:24 | 30.87038 | -86.69020 | 2971 ft | 90 kts | 354° |
| 2026-05-08 01:25 | 30.87666 | -86.69041 | 2835 ft | 96 kts | 5° |
| 2026-05-08 01:25 | 30.88319 | -86.68654 | 2504 ft | 109 kts | 43° |
| 2026-05-08 01:25 | 30.88635 | -86.67897 | 2246 ft | 110 kts | 79° |
| 2026-05-08 01:25 | 30.88402 | -86.67036 | 1712 ft | 118 kts | 149° |
| 2026-05-08 01:26 | 30.87641 | -86.67032 | 1435 ft | 101 kts | 194° |
| 2026-05-08 01:26 | 30.87031 | -86.67177 | 1329 ft | 79 kts | 181° |
| 2026-05-08 01:26 | 30.86665 | -86.66869 | 1387 ft | 71 kts | 98° |
| 2026-05-08 01:26 | 30.86812 | -86.66539 | 1394 ft | 74 kts | 34° |
| 2026-05-08 01:27 | 30.87203 | -86.65895 | 1464 ft | 84 kts | 91° |
| 2026-05-08 01:27 | 30.86748 | -86.65532 | 1413 ft | 94 kts | 181° |
| 2026-05-08 01:27 | 30.86206 | -86.65198 | 1418 ft | 100 kts | 114° |
| 2026-05-08 01:27 | 30.86303 | -86.64705 | 1385 ft | 98 kts | 37° |
| 2026-05-08 01:28 | 30.87044 | -86.64131 | 1365 ft | 102 kts | 62° |
| 2026-05-08 01:28 | 30.87060 | -86.63599 | 1337 ft | 104 kts | 114° |
| 2026-05-08 01:28 | 30.86482 | -86.63293 | 1399 ft | 96 kts | 190° |
| 2026-05-08 01:28 | 30.85856 | -86.63465 | 1458 ft | 94 kts | 195° |
| 2026-05-08 01:29 | 30.85219 | -86.63626 | 1447 ft | 90 kts | 210° |
| 2026-05-08 01:29 | 30.84989 | -86.64240 | 1356 ft | 92 kts | 287° |
| 2026-05-08 01:29 | 30.85440 | -86.64677 | 1376 ft | 83 kts | 349° |
| 2026-05-08 01:29 | 30.85893 | -86.64329 | 1320 ft | 88 kts | 74° |
| 2026-05-08 01:30 | 30.85691 | -86.63689 | 1206 ft | 90 kts | 162° |
| 2026-05-08 01:30 | 30.85244 | -86.64090 | 1172 ft | 90 kts | 262° |
| 2026-05-08 01:30 | 30.85310 | -86.64729 | 1638 ft | 70 kts | 287° |
| 2026-05-08 01:30 | 30.85453 | -86.65179 | 2175 ft | 54 kts | 300° |
| 2026-05-08 01:31 | 30.85677 | -86.65660 | 2509 ft | 74 kts | 304° |
| 2026-05-08 01:31 | 30.85973 | -86.66155 | 2903 ft | 76 kts | 311° |
| 2026-05-08 01:31 | 30.86326 | -86.66701 | 2986 ft | 96 kts | 306° |
| 2026-05-08 01:31 | 30.86748 | -86.67303 | 3129 ft | 93 kts | 312° |
| 2026-05-08 01:32 | 30.86930 | -86.68043 | 3126 ft | 100 kts | 257° |
| 2026-05-08 01:32 | 30.86451 | -86.68628 | 3052 ft | 114 kts | 206° |
| 2026-05-08 01:32 | 30.85638 | -86.68794 | 2900 ft | 122 kts | 182° |
| 2026-05-08 01:32 | 30.84805 | -86.68695 | 2889 ft | 118 kts | 173° |
| 2026-05-08 01:33 | 30.83993 | -86.68551 | 2844 ft | 122 kts | 169° |
| 2026-05-08 01:33 | 30.83206 | -86.68346 | 2981 ft | 109 kts | 168° |
| 2026-05-08 01:33 | 30.82490 | -86.68128 | 3075 ft | 108 kts | 165° |
| 2026-05-08 01:33 | 30.81754 | -86.67917 | 3122 ft | 110 kts | 170° |
| 2026-05-08 01:34 | 30.80982 | -86.67768 | 3094 ft | 114 kts | 176° |
| 2026-05-08 01:34 | 30.80193 | -86.67663 | 3117 ft | 115 kts | 173° |
| 2026-05-08 01:34 | 30.79394 | -86.67503 | 3043 ft | 121 kts | 170° |
| 2026-05-08 01:34 | 30.78555 | -86.67326 | 2991 ft | 120 kts | 172° |
| 2026-05-08 01:35 | 30.77733 | -86.67185 | 2966 ft | 119 kts | 172° |
| 2026-05-08 01:35 | 30.76917 | -86.67033 | 2948 ft | 119 kts | 171° |
| 2026-05-08 01:35 | 30.76100 | -86.66908 | 2941 ft | 119 kts | 174° |
| 2026-05-08 01:35 | 30.75279 | -86.66795 | 2942 ft | 118 kts | 176° |
| 2026-05-08 01:36 | 30.74455 | -86.66756 | 2894 ft | 120 kts | 176° |
| 2026-05-08 01:36 | 30.73636 | -86.66672 | 2912 ft | 117 kts | 176° |
| 2026-05-08 01:36 | 30.72832 | -86.66612 | 2916 ft | 116 kts | 180° |
| 2026-05-08 01:36 | 30.72020 | -86.66601 | 2938 ft | 112 kts | 178° |
| 2026-05-08 01:37 | 30.71237 | -86.66523 | 2947 ft | 115 kts | 175° |
| 2026-05-08 01:37 | 30.70450 | -86.66449 | 3003 ft | 112 kts | 179° |
| 2026-05-08 01:37 | 30.69665 | -86.66447 | 3006 ft | 114 kts | 181° |
| 2026-05-08 01:37 | 30.68884 | -86.66508 | 3047 ft | 111 kts | 190° |
| 2026-05-08 01:38 | 30.68099 | -86.66620 | 3005 ft | 117 kts | 178° |
| 2026-05-08 01:38 | 30.67309 | -86.66491 | 3034 ft | 115 kts | 173° |
| 2026-05-08 01:38 | 30.66514 | -86.66357 | 3035 ft | 115 kts | 173° |
| 2026-05-08 01:38 | 30.65721 | -86.66230 | 3051 ft | 115 kts | 174° |
| 2026-05-08 01:39 | 30.64919 | -86.66110 | 3056 ft | 116 kts | 176° |
| 2026-05-08 01:39 | 30.64119 | -86.66035 | 3076 ft | 116 kts | 172° |
| 2026-05-08 01:39 | 30.63330 | -86.65888 | 3109 ft | 114 kts | 176° |
| 2026-05-08 01:39 | 30.62522 | -86.65748 | 3058 ft | 118 kts | 171° |
| 2026-05-08 01:40 | 30.61730 | -86.65599 | 3096 ft | 115 kts | 173° |
| 2026-05-08 01:40 | 30.60952 | -86.65501 | 3101 ft | 115 kts | 179° |
| 2026-05-08 01:40 | 30.60163 | -86.65605 | 3116 ft | 115 kts | 197° |
| 2026-05-08 01:40 | 30.59397 | -86.65907 | 3074 ft | 118 kts | 192° |
| 2026-05-08 01:41 | 30.58609 | -86.66084 | 3076 ft | 117 kts | 193° |
| 2026-05-08 01:41 | 30.57790 | -86.66263 | 3001 ft | 120 kts | 191° |
| 2026-05-08 01:41 | 30.56966 | -86.66411 | 2980 ft | 119 kts | 188° |
| 2026-05-08 01:41 | 30.56148 | -86.66543 | 2955 ft | 118 kts | 192° |
| 2026-05-08 01:42 | 30.55328 | -86.66724 | 2888 ft | 121 kts | 188° |
| 2026-05-08 01:42 | 30.54506 | -86.66849 | 2884 ft | 119 kts | 189° |
| 2026-05-08 01:42 | 30.53680 | -86.66971 | 2856 ft | 119 kts | 187° |
| 2026-05-08 01:42 | 30.52867 | -86.67105 | 2838 ft | 118 kts | 198° |
| 2026-05-08 01:43 | 30.52102 | -86.67457 | 2763 ft | 120 kts | 202° |
| 2026-05-08 01:43 | 30.51351 | -86.67836 | 2759 ft | 118 kts | 206° |
| 2026-05-08 01:43 | 30.50645 | -86.68330 | 2698 ft | 120 kts | 213° |
| 2026-05-08 01:43 | 30.49900 | -86.68782 | 2557 ft | 125 kts | 204° |
| 2026-05-08 01:44 | 30.49066 | -86.69112 | 2251 ft | 128 kts | 192° |
| 2026-05-08 01:44 | 30.48198 | -86.69287 | 1780 ft | 122 kts | 184° |
| 2026-05-08 01:44 | 30.47386 | -86.69298 | 1424 ft | 113 kts | 174° |
| 2026-05-08 01:44 | 30.46619 | -86.69225 | 1104 ft | 108 kts | 175° |
| 2026-05-08 01:45 | 30.45886 | -86.69159 | 858 ft | 97 kts | 173° |
| 2026-05-08 01:45 | 30.45292 | -86.69080 | 594 ft | 75 kts | 172° |
| 2026-05-08 01:45 | 30.44803 | -86.69037 | 346 ft | 68 kts | 176° |
| 2026-05-08 01:45 | 30.44331 | -86.69002 | 165 ft | 66 kts | 176° |
| 2026-05-08 01:46 | 30.43976 | -86.68970 | 102 ft | 32 kts | 180° |
| 2026-05-08 01:46 | 30.43874 | -86.68960 | 47 ft | 5 kts | 184° |
| 2026-05-08 01:46 | 30.43871 | -86.68959 | 40 ft | 0 kts | 182° |
| 2026-05-08 01:46 | 30.43877 | -86.68960 | 66 ft | 0 kts | 182° |
| 2026-05-08 01:47 | 30.43783 | -86.68954 | 124 ft | 33 kts | 174° |
| 2026-05-08 01:47 | 30.43447 | -86.68938 | 209 ft | 61 kts | 177° |
| 2026-05-08 01:47 | 30.42950 | -86.68920 | 326 ft | 81 kts | 177° |
| 2026-05-08 01:48 | 30.41637 | -86.68968 | 434 ft | 106 kts | 199° |
| 2026-05-08 01:48 | 30.41105 | -86.69624 | 362 ft | 117 kts | 250° |
| 2026-05-08 01:48 | 30.41049 | -86.70566 | 384 ft | 119 kts | 271° |
| 2026-05-08 01:48 | 30.41095 | -86.71519 | 467 ft | 117 kts | 273° |
| 2026-05-08 01:49 | 30.41241 | -86.72465 | 467 ft | 122 kts | 280° |
| 2026-05-08 01:49 | 30.41335 | -86.73431 | 518 ft | 121 kts | 277° |
| 2026-05-08 01:49 | 30.41363 | -86.74442 | 365 ft | 126 kts | 268° |
| 2026-05-08 01:49 | 30.41395 | -86.75443 | 321 ft | 121 kts | 271° |
| 2026-05-08 01:50 | 30.41443 | -86.76409 | 325 ft | 119 kts | 272° |
| 2026-05-08 01:50 | 30.41506 | -86.77362 | 330 ft | 119 kts | 275° |
| 2026-05-08 01:50 | 30.41576 | -86.78313 | 347 ft | 121 kts | 274° |
| 2026-05-08 01:50 | 30.41649 | -86.79286 | 338 ft | 122 kts | 274° |
| 2026-05-08 01:51 | 30.41758 | -86.80255 | 351 ft | 121 kts | 278° |
| 2026-05-08 01:51 | 30.41899 | -86.81236 | 338 ft | 122 kts | 278° |
| 2026-05-08 01:51 | 30.42063 | -86.82169 | 407 ft | 118 kts | 284° |
| 2026-05-08 01:51 | 30.42323 | -86.83078 | 416 ft | 120 kts | 294° |
| 2026-05-08 01:52 | 30.42690 | -86.83949 | 454 ft | 118 kts | 294° |
| 2026-05-08 01:52 | 30.43035 | -86.84828 | 474 ft | 119 kts | 295° |
| 2026-05-08 01:52 | 30.43437 | -86.85668 | 495 ft | 119 kts | 304° |
| 2026-05-08 01:52 | 30.43899 | -86.86475 | 494 ft | 120 kts | 301° |
| 2026-05-08 01:53 | 30.44339 | -86.87296 | 481 ft | 122 kts | 302° |
| 2026-05-08 01:53 | 30.44758 | -86.88152 | 469 ft | 122 kts | 298° |
| 2026-05-08 01:53 | 30.45164 | -86.89009 | 466 ft | 122 kts | 298° |
| 2026-05-08 01:53 | 30.45563 | -86.89877 | 469 ft | 120 kts | 300° |
| 2026-05-08 01:54 | 30.45997 | -86.90710 | 458 ft | 122 kts | 300° |
| 2026-05-08 01:54 | 30.46438 | -86.91543 | 474 ft | 121 kts | 302° |
| 2026-05-08 01:54 | 30.46899 | -86.92358 | 459 ft | 122 kts | 303° |
| 2026-05-08 01:54 | 30.47396 | -86.93148 | 478 ft | 121 kts | 309° |
| 2026-05-08 01:55 | 30.47921 | -86.93919 | 457 ft | 122 kts | 307° |
| 2026-05-08 01:55 | 30.48463 | -86.94665 | 452 ft | 122 kts | 309° |
| 2026-05-08 01:55 | 30.48902 | -86.95517 | 428 ft | 122 kts | 297° |
| 2026-05-08 01:55 | 30.49332 | -86.96360 | 433 ft | 122 kts | 302° |
| 2026-05-08 01:56 | 30.49814 | -86.97160 | 433 ft | 121 kts | 309° |
| 2026-05-08 01:56 | 30.50380 | -86.97884 | 438 ft | 121 kts | 314° |
| 2026-05-08 01:56 | 30.51026 | -86.98511 | 429 ft | 122 kts | 329° |
| 2026-05-08 01:56 | 30.51825 | -86.98784 | 433 ft | 122 kts | 356° |
| 2026-05-08 01:57 | 30.52679 | -86.98763 | 437 ft | 122 kts | 1° |
| 2026-05-08 01:57 | 30.53524 | -86.98718 | 450 ft | 122 kts | 5° |
| 2026-05-08 01:57 | 30.54373 | -86.98657 | 460 ft | 121 kts | 3° |
| 2026-05-08 01:57 | 30.55220 | -86.98626 | 461 ft | 122 kts | 1° |
| 2026-05-08 01:58 | 30.56074 | -86.98573 | 432 ft | 124 kts | 6° |
| 2026-05-08 01:58 | 30.56924 | -86.98463 | 455 ft | 122 kts | 7° |
| 2026-05-08 01:58 | 30.57773 | -86.98386 | 445 ft | 123 kts | 0° |
| 2026-05-08 01:58 | 30.58618 | -86.98423 | 457 ft | 123 kts | 349° |
| 2026-05-08 01:59 | 30.59416 | -86.98773 | 467 ft | 121 kts | 334° |
| 2026-05-08 01:59 | 30.60132 | -86.99280 | 459 ft | 123 kts | 323° |
| 2026-05-08 01:59 | 30.60820 | -86.99854 | 489 ft | 121 kts | 323° |
| 2026-05-08 01:59 | 30.61537 | -87.00361 | 496 ft | 121 kts | 341° |
| 2026-05-08 02:00 | 30.62348 | -87.00635 | 505 ft | 122 kts | 342° |
| 2026-05-08 02:00 | 30.63155 | -87.00927 | 510 ft | 122 kts | 341° |
| 2026-05-08 02:00 | 30.63969 | -87.01212 | 515 ft | 122 kts | 345° |
| 2026-05-08 02:00 | 30.64810 | -87.01395 | 491 ft | 124 kts | 353° |
| 2026-05-08 02:01 | 30.65676 | -87.01476 | 472 ft | 125 kts | 354° |
| 2026-05-08 02:01 | 30.66537 | -87.01573 | 465 ft | 124 kts | 354° |
| 2026-05-08 02:01 | 30.67388 | -87.01612 | 463 ft | 124 kts | 7° |
| 2026-05-08 02:01 | 30.68213 | -87.01285 | 464 ft | 121 kts | 21° |
| 2026-05-08 02:02 | 30.68884 | -87.01047 | 547 ft | 76 kts | 355° |
| 2026-05-08 02:02 | 30.69306 | -87.01235 | 375 ft | 63 kts | 320° |
| 2026-05-08 02:02 | 30.69631 | -87.01552 | 310 ft | 61 kts | 314° |
| 2026-05-08 02:02 | 30.69924 | -87.01842 | 298 ft | 50 kts | 339° |
| 2026-05-08 02:03 | 30.70175 | -87.01812 | 267 ft | 21 kts | 78° |
| 2026-05-08 02:03 | 30.70206 | -87.01726 | 216 ft | 6 kts | 200° |
| 2026-05-08 02:03 | 30.70167 | -87.01731 | 186 ft | 4 kts | 183° |
| 2026-05-08 02:03 | 30.70160 | -87.01729 | 177 ft | 0 kts | 183° |